createdAt,value
2019-03-17T00:00:49.738Z,83.09
2019-03-17T00:03:21.871Z,82.51
2019-03-17T00:05:53.923Z,82.06
2019-03-17T00:08:25.976Z,82.71
2019-03-17T00:10:59.835Z,82.91
2019-03-17T00:13:31.807Z,82.93
2019-03-17T00:16:03.936Z,83.18
2019-03-17T00:18:35.880Z,83.15
2019-03-17T00:21:07.968Z,82.95
2019-03-17T00:23:41.147Z,82.62
2019-03-17T00:26:13.257Z,82.56
2019-03-17T00:28:45.245Z,82.71
2019-03-17T00:31:23.867Z,82.87
2019-03-17T00:33:51.221Z,83.01
2019-03-17T00:36:23.220Z,82.96
2019-03-17T00:38:55.214Z,82.80
2019-03-17T00:41:27.343Z,82.67
2019-03-17T00:44:01.100Z,83.34
2019-03-17T00:46:33.162Z,83.42
2019-03-17T00:49:05.154Z,83.65
2019-03-17T00:51:37.156Z,83.02
2019-03-17T00:54:09.168Z,81.98
2019-03-17T00:56:41.194Z,82.14
2019-03-17T00:59:13.316Z,82.31
2019-03-17T01:01:45.290Z,82.91
2019-03-17T01:04:17.275Z,83.64
2019-03-17T01:06:49.248Z,83.71
2019-03-17T01:09:22.346Z,83.64
2019-03-17T01:11:54.449Z,83.73
2019-03-17T01:14:26.491Z,83.82
2019-03-17T01:16:58.570Z,83.92
2019-03-17T01:19:30.817Z,84.05
2019-03-17T01:22:02.752Z,83.92
2019-03-17T01:24:34.747Z,84.05
2019-03-17T01:27:06.860Z,83.98
2019-03-17T01:29:38.871Z,83.77
2019-03-17T01:32:10.848Z,83.35
2019-03-17T01:34:42.843Z,83.25
2019-03-17T01:37:16.605Z,83.30
2019-03-17T01:39:48.584Z,83.26
2019-03-17T01:42:20.554Z,82.58
2019-03-17T01:44:52.512Z,82.35
2019-03-17T01:47:24.476Z,81.83
2019-03-17T01:49:58.300Z,82.04
2019-03-17T01:52:30.371Z,81.90
2019-03-17T01:55:02.493Z,82.52
2019-03-17T01:57:34.543Z,82.37
2019-03-17T02:00:07.310Z,81.74
2019-03-17T02:02:39.294Z,81.45
2019-03-17T02:05:21.228Z,81.40
2019-03-17T02:07:45.187Z,81.04
2019-03-17T02:10:17.264Z,81.88
2019-03-17T02:12:49.228Z,81.76
2019-03-17T02:15:21.241Z,81.23
2019-03-17T02:17:53.279Z,81.08
2019-03-17T02:20:25.259Z,81.86
2019-03-17T02:22:57.197Z,82.05
2019-03-17T02:25:29.229Z,81.70
2019-03-17T02:28:01.198Z,81.81
2019-03-17T02:30:33.170Z,82.70
2019-03-17T02:33:05.148Z,83.10
2019-03-17T02:35:39.879Z,83.13
2019-03-17T02:38:10.987Z,83.24
2019-03-17T02:40:42.953Z,83.46
2019-03-17T02:43:14.905Z,83.53
2019-03-17T02:45:46.873Z,83.18
2019-03-17T02:48:18.797Z,83.24
2019-03-17T02:50:50.796Z,83.23
2019-03-17T02:53:22.743Z,83.22
2019-03-17T02:55:54.718Z,82.64
2019-03-17T02:58:26.680Z,82.02
2019-03-17T03:00:58.654Z,82.25
2019-03-17T03:03:30.606Z,82.64
2019-03-17T03:06:02.551Z,83.02
2019-03-17T03:08:34.543Z,83.30
2019-03-17T03:11:06.495Z,83.45
2019-03-17T03:13:38.515Z,83.24
2019-03-17T03:16:10.463Z,83.32
2019-03-17T03:18:42.430Z,83.20
2019-03-17T03:21:14.368Z,83.16
2019-03-17T03:23:46.371Z,83.02
2019-03-17T03:26:18.353Z,82.86
2019-03-17T03:28:50.333Z,82.78
2019-03-17T03:31:22.299Z,82.45
2019-03-17T03:33:54.260Z,82.46
2019-03-17T03:36:26.198Z,82.55
2019-03-17T03:38:58.201Z,82.86
2019-03-17T03:41:30.568Z,83.07
2019-03-17T03:44:02.526Z,83.11
2019-03-17T03:46:34.464Z,82.92
2019-03-17T03:49:06.433Z,82.61
2019-03-17T03:51:38.374Z,82.37
2019-03-17T03:54:10.415Z,82.55
2019-03-17T03:56:42.302Z,82.13
2019-03-17T03:59:14.385Z,81.61
2019-03-17T04:01:46.331Z,81.36
2019-03-17T04:04:18.330Z,81.87
2019-03-17T04:06:50.280Z,82.24
2019-03-17T04:09:22.250Z,82.29
2019-03-17T04:11:54.191Z,82.59
2019-03-17T04:14:26.153Z,81.99
2019-03-17T04:16:58.115Z,82.04
2019-03-17T04:19:30.047Z,82.15
2019-03-17T04:22:02.055Z,81.97
2019-03-17T04:24:34.164Z,82.13
2019-03-17T04:27:06.133Z,82.41
2019-03-17T04:29:38.062Z,82.14
2019-03-17T04:32:10.015Z,82.20
2019-03-17T04:34:41.953Z,81.75
2019-03-17T04:37:14.003Z,81.43
2019-03-17T04:39:45.946Z,80.57
2019-03-17T04:42:17.911Z,80.91
2019-03-17T04:44:49.861Z,81.82
2019-03-17T04:47:21.820Z,82.11
2019-03-17T04:49:53.769Z,81.59
2019-03-17T04:52:26.588Z,81.61
2019-03-17T04:54:58.517Z,82.09
2019-03-17T04:57:30.515Z,80.78
2019-03-17T05:00:02.938Z,81.84
2019-03-17T05:02:34.889Z,82.15
2019-03-17T05:05:06.968Z,82.31
2019-03-17T05:07:38.929Z,81.69
2019-03-17T05:10:10.964Z,81.24
2019-03-17T05:12:42.935Z,81.21
2019-03-17T05:15:14.898Z,80.84
2019-03-17T05:17:46.873Z,80.27
2019-03-17T05:20:18.821Z,80.75
2019-03-17T05:22:50.827Z,80.62
2019-03-17T05:25:22.793Z,80.17
2019-03-17T05:27:54.757Z,80.29
2019-03-17T05:30:26.704Z,80.53
2019-03-17T05:32:58.667Z,80.74
2019-03-17T05:35:30.600Z,79.69
2019-03-17T05:38:02.549Z,79.45
2019-03-17T05:40:34.516Z,80.27
2019-03-17T05:43:06.517Z,80.11
2019-03-17T05:45:38.456Z,80.61
2019-03-17T05:48:10.413Z,80.20
2019-03-17T05:50:42.374Z,81.06
2019-03-17T05:53:14.322Z,81.39
2019-03-17T05:55:46.265Z,81.64
2019-03-17T05:58:18.234Z,81.53
2019-03-17T06:00:50.198Z,81.71
2019-03-17T06:03:22.164Z,81.33
2019-03-17T06:05:54.170Z,81.54
2019-03-17T06:08:26.110Z,81.36
2019-03-17T06:10:58.099Z,81.03
2019-03-17T06:13:30.056Z,80.81
2019-03-17T06:16:02.053Z,80.82
2019-03-17T06:18:34.041Z,80.80
2019-03-17T06:21:06.123Z,80.37
2019-03-17T06:23:38.065Z,79.25
2019-03-17T06:26:10.081Z,79.33
2019-03-17T06:28:42.031Z,79.15
2019-03-17T06:31:13.981Z,77.34
2019-03-17T06:33:45.935Z,76.33
2019-03-17T06:36:17.906Z,76.36
2019-03-17T06:38:49.867Z,76.21
2019-03-17T06:41:21.821Z,74.26
2019-03-17T06:43:53.764Z,71.05
2019-03-17T06:46:25.771Z,69.82
2019-03-17T06:48:57.743Z,70.06
2019-03-17T06:51:29.745Z,70.35
2019-03-17T06:54:01.702Z,70.92
2019-03-17T06:56:33.702Z,71.45
2019-03-17T06:59:05.652Z,70.03
2019-03-17T07:01:37.637Z,68.07
2019-03-17T07:04:09.608Z,66.96
2019-03-17T07:06:41.606Z,66.37
2019-03-17T07:09:13.547Z,66.44
2019-03-17T07:11:45.573Z,66.93
2019-03-17T07:14:17.553Z,67.30
2019-03-17T07:16:49.572Z,67.28
2019-03-17T07:19:21.520Z,67.54
2019-03-17T07:21:53.486Z,67.46
2019-03-17T07:24:25.429Z,67.94
2019-03-17T07:26:57.404Z,66.74
2019-03-17T07:29:29.376Z,67.13
2019-03-17T07:32:01.365Z,65.35
2019-03-17T07:34:33.313Z,65.70
2019-03-17T07:37:05.281Z,65.51
2019-03-17T07:39:37.281Z,65.64
2019-03-17T07:42:09.258Z,65.47
2019-03-17T07:44:41.248Z,66.61
2019-03-17T07:47:13.216Z,65.21
2019-03-17T07:49:45.201Z,65.70
2019-03-17T07:52:17.202Z,65.59
2019-03-17T07:54:49.133Z,65.10
2019-03-17T07:57:21.085Z,64.53
2019-03-17T07:59:53.123Z,62.85
2019-03-17T08:02:25.110Z,62.85
2019-03-17T08:04:57.139Z,62.57
2019-03-17T08:07:29.179Z,62.93
2019-03-17T08:10:01.114Z,61.84
2019-03-17T08:12:33.129Z,60.58
2019-03-17T08:15:05.473Z,59.40
2019-03-17T08:17:37.467Z,58.96
2019-03-17T08:20:09.644Z,57.16
2019-03-17T08:22:41.609Z,58.13
2019-03-17T08:25:13.643Z,54.75
2019-03-17T08:27:45.659Z,55.70
2019-03-17T08:30:17.816Z,55.41
2019-03-17T08:32:49.792Z,51.17
2019-03-17T08:35:21.796Z,50.36
2019-03-17T08:37:53.785Z,50.20
2019-03-17T08:40:25.779Z,49.32
2019-03-17T08:42:57.834Z,47.82
2019-03-17T08:45:30.717Z,44.41
2019-03-17T08:48:02.768Z,42.00
2019-03-17T08:50:34.756Z,41.67
2019-03-17T08:53:06.722Z,38.27
2019-03-17T08:55:38.748Z,37.31
2019-03-17T08:58:10.697Z,34.58
2019-03-17T09:00:42.689Z,31.56
2019-03-17T09:03:14.710Z,29.85
2019-03-17T09:05:46.716Z,30.27
2019-03-17T09:08:18.678Z,30.07
2019-03-17T09:10:50.709Z,29.14
2019-03-17T09:13:22.691Z,29.31
2019-03-17T09:15:54.733Z,29.46
2019-03-17T09:18:27.244Z,29.76
2019-03-17T09:20:59.344Z,28.76
2019-03-17T09:23:31.376Z,28.64
2019-03-17T09:26:03.395Z,29.18
2019-03-17T09:28:35.400Z,27.66
2019-03-17T09:31:07.698Z,28.47
2019-03-17T09:33:39.940Z,28.79
2019-03-17T09:36:11.901Z,28.32
2019-03-17T09:38:47.506Z,27.83
2019-03-17T09:41:17.816Z,27.08
2019-03-17T09:43:49.849Z,27.52
2019-03-17T09:46:21.817Z,28.44
2019-03-17T09:48:53.838Z,28.12
2019-03-17T09:51:25.779Z,28.19
2019-03-17T09:53:57.839Z,27.77
2019-03-17T09:56:29.882Z,27.86
2019-03-17T09:59:01.929Z,28.55
2019-03-17T10:01:33.869Z,28.02
2019-03-17T10:04:05.870Z,27.24
2019-03-17T10:06:37.812Z,27.21
2019-03-17T10:09:09.844Z,26.98
2019-03-17T10:11:41.841Z,27.45
2019-03-17T10:14:13.930Z,27.76
2019-03-17T10:16:45.959Z,27.32
2019-03-17T10:19:17.945Z,27.52
2019-03-17T10:21:49.997Z,27.71
2019-03-17T10:24:22.008Z,27.09
2019-03-17T10:26:54.048Z,27.66
2019-03-17T10:29:26.117Z,26.85
2019-03-17T10:31:58.153Z,26.80
2019-03-17T10:34:30.178Z,26.76
2019-03-17T10:37:02.143Z,26.81
2019-03-17T10:39:34.112Z,26.83
2019-03-17T10:42:06.272Z,27.25
2019-03-17T10:44:38.394Z,27.31
2019-03-17T10:47:10.393Z,26.76
2019-03-17T10:49:42.397Z,27.49
2019-03-17T10:52:14.448Z,27.71
2019-03-17T10:54:47.595Z,27.62
2019-03-17T10:57:19.594Z,27.77
2019-03-17T10:59:51.583Z,28.97
2019-03-17T11:02:23.762Z,28.54
2019-03-17T11:04:55.883Z,27.41
2019-03-17T11:07:27.922Z,27.52
2019-03-17T11:09:59.913Z,27.43
2019-03-17T11:12:31.989Z,27.85
2019-03-17T11:15:05.098Z,27.89
2019-03-17T11:17:37.130Z,28.03
2019-03-17T11:20:09.475Z,28.14
2019-03-17T11:22:41.521Z,28.00
2019-03-17T11:25:13.746Z,27.82
2019-03-17T11:27:47.605Z,26.80
2019-03-17T11:30:19.683Z,27.28
2019-03-17T11:32:51.690Z,28.08
2019-03-17T11:35:23.701Z,28.17
2019-03-17T11:37:55.809Z,28.53
2019-03-17T11:40:29.030Z,27.70
2019-03-17T11:43:01.154Z,28.17
2019-03-17T11:45:33.282Z,28.32
2019-03-17T11:48:05.341Z,28.50
2019-03-17T11:50:37.330Z,28.57
2019-03-17T11:53:10.393Z,28.93
2019-03-17T11:55:42.620Z,29.30
2019-03-17T11:58:14.737Z,29.17
2019-03-17T12:00:46.752Z,28.85
2019-03-17T12:03:19.045Z,28.61
2019-03-17T12:05:51.085Z,29.11
2019-03-17T12:08:23.243Z,28.62
2019-03-17T12:10:55.497Z,28.75
2019-03-17T12:13:27.569Z,29.14
2019-03-17T12:15:59.646Z,28.58
2019-03-17T12:18:31.637Z,29.02
2019-03-17T12:21:03.677Z,29.82
2019-03-17T12:23:35.739Z,29.60
2019-03-17T12:26:07.712Z,29.67
2019-03-17T12:28:39.772Z,30.12
2019-03-17T12:31:11.770Z,30.00
2019-03-17T12:33:43.806Z,30.57
2019-03-17T12:36:18.789Z,30.80
2019-03-17T12:38:49.766Z,30.22
2019-03-17T12:41:21.790Z,30.40
2019-03-17T12:43:53.820Z,29.73
2019-03-17T12:46:26.093Z,29.83
2019-03-17T12:48:58.092Z,30.03
2019-03-17T12:51:31.526Z,29.14
2019-03-17T12:54:03.698Z,30.31
2019-03-17T12:56:35.904Z,30.18
2019-03-17T12:59:07.863Z,30.71
2019-03-17T13:01:41.008Z,31.06
2019-03-17T13:04:12.990Z,31.48
2019-03-17T13:06:45.265Z,31.76
2019-03-17T13:09:17.526Z,32.02
2019-03-17T13:11:49.769Z,32.28
2019-03-17T13:14:21.811Z,32.96
2019-03-17T13:16:53.965Z,33.91
2019-03-17T13:19:25.931Z,34.34
2019-03-17T13:21:57.975Z,34.69
2019-03-17T13:24:29.986Z,36.65
2019-03-17T13:27:02.074Z,40.46
2019-03-17T13:29:34.093Z,41.47
2019-03-17T13:32:06.233Z,42.70
2019-03-17T13:34:38.231Z,43.92
2019-03-17T13:37:10.266Z,44.65
2019-03-17T13:39:42.265Z,45.28
2019-03-17T13:42:14.261Z,45.97
2019-03-17T13:44:46.265Z,46.98
2019-03-17T13:47:18.309Z,48.81
2019-03-17T13:49:50.285Z,50.25
2019-03-17T13:52:22.318Z,52.44
2019-03-17T13:54:54.318Z,55.28
2019-03-17T13:57:26.346Z,55.96
2019-03-17T13:59:58.332Z,57.18
2019-03-17T14:02:30.333Z,58.40
2019-03-17T14:05:02.348Z,58.60
2019-03-17T14:07:34.401Z,60.62
2019-03-17T14:10:14.021Z,60.66
2019-03-17T14:12:43.361Z,60.26
2019-03-17T14:15:56.176Z,60.23
2019-03-17T14:18:28.208Z,62.05
2019-03-17T14:21:00.159Z,62.36
2019-03-17T14:23:32.184Z,64.17
2019-03-17T14:26:04.176Z,66.07
2019-03-17T14:28:36.188Z,67.61
2019-03-17T14:31:08.182Z,69.47
2019-03-17T14:33:40.185Z,70.15
2019-03-17T14:36:12.175Z,70.08
2019-03-17T14:38:44.224Z,71.23
2019-03-17T14:41:16.236Z,72.17
2019-03-17T14:43:48.294Z,71.30
2019-03-17T14:46:20.307Z,71.30
2019-03-17T14:48:52.336Z,72.24
2019-03-17T14:51:24.399Z,73.17
2019-03-17T14:53:56.488Z,73.03
2019-03-17T14:56:28.574Z,75.40
2019-03-17T14:59:00.602Z,75.87
2019-03-17T15:01:32.613Z,75.72
2019-03-17T15:04:04.606Z,75.77
2019-03-17T15:06:36.631Z,77.26
2019-03-17T15:09:08.669Z,76.56
2019-03-17T15:11:40.673Z,77.58
2019-03-17T15:14:12.690Z,78.96
2019-03-17T15:16:44.739Z,79.36
2019-03-17T15:19:16.770Z,78.70
2019-03-17T15:21:48.819Z,79.56
2019-03-17T15:24:20.893Z,80.12
2019-03-17T15:26:52.976Z,80.84
2019-03-17T15:29:25.028Z,81.49
2019-03-17T15:31:57.034Z,81.58
2019-03-17T15:34:29.024Z,82.02
2019-03-17T15:37:01.111Z,81.47
2019-03-17T15:39:33.098Z,80.93
2019-03-17T15:42:05.146Z,81.02
2019-03-17T15:44:37.162Z,81.44
2019-03-17T15:47:09.220Z,80.76
2019-03-17T15:49:41.222Z,81.27
2019-03-17T15:52:13.301Z,80.38
2019-03-17T15:54:45.307Z,79.86
2019-03-17T15:57:17.364Z,79.96
2019-03-17T15:59:49.391Z,80.70
2019-03-17T16:02:21.451Z,81.12
2019-03-17T16:04:53.460Z,80.22
2019-03-17T16:07:25.503Z,80.41
2019-03-17T16:09:57.484Z,81.27
2019-03-17T16:12:29.489Z,80.58
2019-03-17T16:15:01.485Z,81.03
2019-03-17T16:17:33.595Z,80.70
2019-03-17T16:20:06.552Z,80.28
2019-03-17T16:22:38.618Z,80.70
2019-03-17T16:25:11.378Z,80.87
2019-03-17T16:27:44.281Z,81.31
2019-03-17T16:30:18.016Z,80.49
2019-03-17T16:32:50.167Z,81.51
2019-03-17T16:35:22.287Z,80.54
2019-03-17T16:37:54.288Z,80.83
2019-03-17T16:40:26.403Z,81.06
2019-03-17T16:42:58.455Z,80.74
2019-03-17T16:45:30.493Z,80.81
2019-03-17T16:48:43.326Z,81.16
2019-03-17T16:51:15.374Z,80.61
2019-03-17T16:53:47.503Z,80.11
2019-03-17T16:56:19.545Z,80.47
2019-03-17T16:58:51.569Z,80.79
2019-03-17T17:01:23.555Z,80.69
2019-03-17T17:03:55.722Z,80.78
2019-03-17T17:06:27.723Z,81.54
2019-03-17T17:08:59.788Z,81.43
2019-03-17T17:11:31.832Z,81.61
2019-03-17T17:14:03.949Z,81.67
2019-03-17T17:16:35.990Z,82.11
2019-03-17T17:19:08.044Z,81.81
2019-03-17T17:21:40.039Z,81.71
2019-03-17T17:24:12.080Z,82.26
2019-03-17T17:26:44.182Z,81.97
2019-03-17T17:29:16.224Z,82.32
2019-03-17T17:31:48.231Z,82.70
2019-03-17T17:34:20.306Z,82.49
2019-03-17T17:36:52.318Z,81.63
2019-03-17T17:39:24.454Z,82.15
2019-03-17T17:42:07.940Z,82.03
2019-03-17T17:44:30.457Z,82.08
2019-03-17T17:47:02.533Z,82.07
2019-03-17T17:49:34.544Z,82.16
2019-03-17T17:52:06.623Z,82.17
2019-03-17T17:54:38.612Z,82.59
2019-03-17T17:59:49.481Z,83.08
2019-03-17T18:02:21.530Z,82.81
2019-03-17T18:04:53.611Z,82.96
2019-03-17T18:07:25.821Z,82.62
2019-03-17T18:09:57.842Z,82.28
2019-03-17T18:12:29.967Z,82.07
2019-03-17T18:15:02.088Z,82.60
2019-03-17T18:17:34.265Z,82.43
2019-03-17T18:20:47.508Z,82.64
2019-03-17T18:23:19.564Z,81.93
2019-03-17T18:25:51.635Z,82.55
2019-03-17T18:28:23.866Z,82.88
2019-03-17T18:30:55.892Z,83.03
2019-03-17T18:33:27.929Z,83.39
2019-03-17T18:38:30.057Z,83.17
2019-03-17T18:41:02.105Z,83.26
2019-03-17T18:43:34.862Z,83.45
2019-03-17T18:46:06.939Z,83.45
2019-03-17T18:48:39.046Z,83.82
2019-03-17T18:51:11.075Z,83.83
2019-03-17T18:53:43.131Z,84.02
2019-03-17T18:56:15.211Z,82.70
2019-03-17T18:58:47.430Z,82.86
2019-03-17T19:01:19.517Z,82.92
2019-03-17T19:03:51.704Z,81.89
2019-03-17T19:06:23.775Z,81.70
2019-03-17T19:08:55.985Z,81.88
2019-03-17T19:11:28.167Z,80.94
2019-03-17T19:14:00.222Z,80.47
2019-03-17T19:16:32.295Z,78.40
2019-03-17T19:19:04.356Z,78.05
2019-03-17T19:21:36.575Z,77.94
2019-03-17T19:24:08.937Z,77.71
2019-03-17T19:26:41.184Z,78.08
2019-03-17T19:29:13.269Z,77.24
2019-03-17T19:31:47.282Z,76.50
2019-03-17T19:34:19.462Z,77.52
2019-03-17T19:36:52.880Z,77.50
2019-03-17T19:39:24.881Z,77.26
2019-03-17T19:41:57.023Z,78.80
2019-03-17T19:44:29.059Z,79.83
2019-03-17T19:47:01.184Z,80.12
2019-03-17T19:49:33.276Z,80.48
2019-03-17T19:52:05.676Z,80.87
2019-03-17T19:54:37.884Z,81.08
2019-03-17T19:57:10.184Z,81.20
2019-03-17T19:59:42.333Z,81.68
2019-03-17T20:02:14.544Z,82.32
2019-03-17T20:04:46.597Z,82.25
2019-03-17T20:07:18.715Z,81.99
2019-03-17T20:09:50.756Z,81.46
2019-03-17T20:12:22.926Z,81.74
2019-03-17T20:14:54.968Z,82.32
2019-03-17T20:17:27.051Z,82.37
2019-03-17T20:19:59.301Z,81.96
2019-03-17T20:22:31.388Z,81.78
2019-03-17T20:25:03.588Z,81.80
2019-03-17T20:27:35.691Z,81.92
2019-03-17T20:30:08.657Z,82.04
2019-03-17T20:32:40.880Z,81.57
2019-03-17T20:35:13.023Z,81.51
2019-03-17T20:37:46.383Z,81.63
2019-03-17T20:40:18.429Z,81.50
2019-03-17T20:42:50.617Z,81.33
2019-03-17T20:45:22.642Z,81.52
2019-03-17T20:47:54.820Z,81.56
2019-03-17T20:50:26.919Z,82.15
2019-03-17T20:52:59.169Z,81.71
2019-03-17T20:55:31.211Z,81.05
2019-03-17T20:58:03.351Z,80.05
2019-03-17T21:00:35.519Z,80.29
2019-03-17T21:03:07.549Z,79.48
2019-03-17T21:05:39.787Z,80.30
2019-03-17T21:08:12.087Z,79.04
2019-03-17T21:10:44.732Z,78.80
2019-03-17T21:13:16.960Z,77.13
2019-03-17T21:15:49.155Z,76.29
2019-03-17T21:18:21.384Z,76.42
2019-03-17T21:20:53.430Z,75.61
2019-03-17T21:23:25.566Z,76.37
2019-03-17T21:25:57.688Z,76.64
2019-03-17T21:28:29.767Z,77.24
2019-03-17T21:31:01.826Z,76.87
2019-03-17T21:33:33.889Z,76.44
2019-03-17T21:36:06.012Z,77.45
2019-03-17T21:38:37.975Z,77.51
2019-03-17T21:41:10.020Z,77.18
2019-03-17T21:43:42.193Z,77.19
2019-03-17T21:46:14.357Z,76.96
2019-03-17T21:48:46.449Z,76.65
2019-03-17T21:51:18.479Z,74.77
2019-03-17T21:53:50.502Z,75.74
2019-03-17T21:56:22.576Z,76.19
2019-03-17T21:58:54.769Z,75.76
2019-03-17T22:01:26.811Z,76.06
2019-03-17T22:03:58.819Z,75.12
2019-03-17T22:06:31.954Z,73.48
2019-03-17T22:09:05.947Z,74.92
2019-03-17T22:11:38.084Z,75.49
2019-03-17T22:14:12.305Z,75.06
2019-03-17T22:16:44.203Z,74.20
2019-03-17T22:19:16.203Z,71.13
2019-03-17T22:21:48.224Z,70.05
2019-03-17T22:24:20.209Z,70.29
2019-03-17T22:26:54.131Z,71.28
2019-03-17T22:29:26.239Z,70.51
2019-03-17T22:31:58.338Z,71.23
2019-03-17T22:34:30.372Z,70.97
2019-03-17T22:37:02.398Z,71.55
2019-03-17T22:39:34.413Z,72.27
2019-03-17T22:42:07.698Z,71.83
2019-03-17T22:44:39.793Z,72.38
2019-03-17T22:47:11.813Z,71.32
2019-03-17T22:49:44.007Z,70.96
2019-03-17T22:52:16.045Z,72.05
2019-03-17T22:54:48.099Z,72.94
2019-03-17T22:57:20.133Z,72.40
2019-03-17T22:59:52.111Z,72.69
2019-03-17T23:02:24.123Z,72.83
2019-03-17T23:04:56.113Z,73.10
2019-03-17T23:07:28.118Z,73.38
2019-03-17T23:10:00.329Z,73.08
2019-03-17T23:12:32.306Z,73.34
2019-03-17T23:15:04.691Z,74.11
2019-03-17T23:17:36.672Z,73.58
2019-03-17T23:20:10.102Z,73.80
2019-03-17T23:22:43.165Z,74.47
2019-03-17T23:25:15.146Z,74.34
2019-03-17T23:27:47.148Z,74.61
2019-03-17T23:30:19.298Z,74.71
2019-03-17T23:32:51.255Z,74.43
2019-03-17T23:35:23.284Z,72.96
2019-03-17T23:37:55.261Z,74.08
2019-03-17T23:40:27.248Z,73.79
2019-03-17T23:42:59.230Z,74.30
2019-03-17T23:45:31.209Z,74.14
2019-03-17T23:48:04.372Z,74.76
2019-03-17T23:50:36.371Z,73.79
2019-03-17T23:53:08.344Z,74.00
2019-03-17T23:55:40.408Z,74.35
2019-03-17T23:58:12.373Z,73.62
